Flight Track Log - Related Links

Times and Time Zones

All times are in EDT time to prevent confusion due to time zone crossing. See the SWA652 flight status page for this flight to view local times or setup timezone preferences in your user account.

Time Position Orientation Groundspeed Altitude Reporting Facility
EDT Latitude Longitude Course Direction KTS MPH feet Rate Location/Type
Mon 08:46:00 AM 41.3206 -95.9000 329° Northwest 160 184 1,800  Level Minneapolis Center
Mon 08:46:37 AM 41.3450 -95.9194 329° Northwest 180 207 2,800 1,622 Climbing Minneapolis Center
Mon 08:47:14 AM 41.3533 -95.9578 286° West 240 276 3,800 2,149 Climbing Minneapolis Center
Mon 08:47:44 AM 41.3381 -96.0061 247° West 258 297 5,200 2,806 Climbing Minneapolis Center
Mon 08:48:16 AM 41.3194 -96.0492 240° Southwest 254 292 6,700 3,511 Climbing Minneapolis Center
Mon 08:49:18 AM 41.2822 -96.1453 243° Southwest 281 323 10,700 3,024 Climbing Minneapolis Center
Mon 08:50:19 AM 41.2442 -96.2483 244° Southwest 305 351 12,900 2,244 Climbing Minneapolis Center
Mon 08:51:21 AM 41.2250 -96.3817 259° West 361 415 15,300 2,371 Climbing Minneapolis Center
Mon 08:52:23 AM 41.2039 -96.5214 259° West 381 438 17,800 2,419 Climbing Minneapolis Center
Mon 08:53:25 AM 41.1822 -96.6706 259° West 406 467 20,300 2,537 Climbing Minneapolis Center
Mon 08:54:26 AM 41.1589 -96.8233 259° West 419 482 23,000 2,585 Climbing Minneapolis Center
Mon 08:55:28 AM 41.1350 -96.9731 258° West 417 480 25,600 2,323 Climbing Minneapolis Center
Mon 08:56:30 AM 41.1064 -97.1578 258° West 424 488 27,800 1,984 Climbing Minneapolis Center
Mon 08:57:32 AM 41.0811 -97.3150 258° West 432 497 29,700 2,098 Climbing Minneapolis Center
Mon 08:58:33 AM 41.0572 -97.4631 258° West 428 493 32,100 2,195 Climbing Minneapolis Center
Mon 08:59:35 AM 41.0344 -97.6081 258° West 410 472 34,200 1,742 Climbing Minneapolis Center
Mon 09:00:37 AM 41.0122 -97.7503 258° West 398 458 35,700 1,268 Climbing Minneapolis Center
Mon 09:01:38 AM 40.9936 -97.8628 258° West 394 453 36,800 1,122 Climbing Minneapolis Center
Mon 09:02:40 AM 40.9667 -98.0292 258° West 386 444 38,000 581 Climbing Minneapolis Center
Mon 09:03:42 AM 40.9400 -98.1953 258° West 384 442 38,000  Level Minneapolis Center
Mon 09:04:43 AM 40.9164 -98.3336 257° West 384 442 38,000  Level Minneapolis Center
Mon 09:05:45 AM 40.8925 -98.4717 257° West 384 442 38,000  Level Minneapolis Center
Mon 09:06:47 AM 40.8689 -98.6117 257° West 387 445 38,000  Level Minneapolis Center
Mon 09:07:48 AM 40.8461 -98.7531 258° West 391 450 38,000  Level Minneapolis Center
Mon 09:08:50 AM 40.8222 -98.8947 257° West 394 453 38,000  Level Minneapolis Center
Mon 09:09:52 AM 40.8000 -99.0367 258° West 395 455 38,000  Level Minneapolis Center
Mon 09:10:42 AM 40.7789 -99.1581 257° West 399 459 38,000  Level Denver Center
Mon 09:11:43 AM 40.7539 -99.3019 257° West 400 460 38,000  Level Denver Center
Mon 09:12:44 AM 40.7289 -99.4467 257° West 403 464 38,000  Level Denver Center
Mon 09:13:45 AM 40.7042 -99.5900 257° West 401 461 38,000  Level Denver Center
Mon 09:14:46 AM 40.6783 -99.7358 257° West 407 468 38,000  Level Denver Center
Mon 09:15:47 AM 40.6494 -99.8983 257° West 404 465 38,000  Level Denver Center
Mon 09:16:48 AM 40.6258 -100.0369 257° West 404 465 38,000  Level Denver Center
Mon 09:17:49 AM 40.5967 -100.1986 257° West 405 466 38,000  Level Denver Center
Mon 09:18:50 AM 40.5717 -100.3364 257° West 404 465 38,000  Level Denver Center
Mon 09:19:52 AM 40.5467 -100.4747 257° West 404 465 38,000  Level Denver Center
Mon 09:20:53 AM 40.5167 -100.6356 256° West 403 464 38,000  Level Denver Center
Mon 09:21:54 AM 40.4919 -100.7742 257° West 404 465 38,000  Level Denver Center
Mon 09:22:55 AM 40.4653 -100.9117 256° West 404 465 38,000  Level Denver Center
Mon 09:23:56 AM 40.4361 -101.0722 257° West 404 465 38,000  Level Denver Center
Mon 09:24:57 AM 40.4094 -101.2089 256° West 403 464 38,000  Level Denver Center
Mon 09:25:58 AM 40.3839 -101.3464 256° West 403 464 38,000  Level Denver Center
Mon 09:26:59 AM 40.3533 -101.5078 256° West 406 467 38,000  Level Denver Center
Mon 09:28:00 AM 40.3267 -101.6456 256° West 407 468 38,000  Level Denver Center
Mon 09:29:01 AM 40.2992 -101.7839 255° West 410 472 38,000  Level Denver Center
Mon 09:30:03 AM 40.2681 -101.9439 256° West 407 468 38,000  Level Denver Center
Mon 09:31:04 AM 40.2408 -102.0811 255° West 406 467 38,000  Level Denver Center
Mon 09:32:05 AM 40.2094 -102.2383 255° West 401 461 38,000  Level Denver Center
Mon 09:33:06 AM 40.1822 -102.3733 255° West 400 460 38,000  Level Denver Center
Mon 09:34:07 AM 40.1561 -102.5094 256° West 402 463 38,000  Level Denver Center
Mon 09:35:09 AM 40.1233 -102.6664 255° West 402 463 38,000  Level Denver Center
Mon 09:36:10 AM 40.0956 -102.8050 255° West 404 465 38,000  Level Denver Center
Mon 09:37:11 AM 40.0656 -102.9456 254° West 405 466 38,000  Level Denver Center
Mon 09:38:12 AM 40.0364 -103.0869 255° West 404 465 38,000  Level Denver Center
Mon 09:39:13 AM 40.0075 -103.2286 255° West 404 465 38,000  Level Denver Center
Mon 09:40:15 AM 39.9703 -103.3667 251° West 405 466 38,000  Level Denver Center
Mon 09:41:16 AM 39.9344 -103.5061 252° West 405 466 38,000  Level Denver Center
Mon 09:42:17 AM 39.8997 -103.6458 252° West 406 467 38,000  Level Denver Center
Mon 09:43:18 AM 39.8556 -103.8133 251° West 409 471 38,000  Level Denver Center
Mon 09:44:20 AM 39.8194 -103.9528 251° West 408 470 38,000  Level Denver Center
Mon 09:45:21 AM 39.7828 -104.0883 251° West 397 457 38,000  Level Denver Center
Mon 09:46:22 AM 39.7467 -104.2244 251° West 399 459 38,000  Level Denver Center
Mon 09:47:23 AM 39.7103 -104.3597 251° West 397 457 38,000  Level Denver Center
Mon 09:48:25 AM 39.6756 -104.4919 251° West 390 449 38,000  Level Denver Center
Mon 09:49:26 AM 39.6328 -104.6425 250° West 408 470 38,000  Level Denver Center
Mon 09:50:27 AM 39.5958 -104.7772 250° West 398 458 38,000  Level Denver Center
Mon 09:51:28 AM 39.5600 -104.9139 251° West 396 456 38,000  Level Denver Center
Mon 09:52:30 AM 39.5231 -105.0475 250° West 395 455 38,000  Level Denver Center
Mon 09:53:31 AM 39.4858 -105.1825 250° West 401 461 38,000  Level Denver Center
Mon 09:54:33 AM 39.4486 -105.3172 250° West 396 456 38,000  Level Denver Center
Mon 09:55:34 AM 39.4097 -105.4528 250° West 399 459 38,000  Level Denver Center
Mon 09:56:35 AM 39.3736 -105.5875 251° West 394 453 38,000  Level Denver Center
Mon 09:57:37 AM 39.3264 -105.7500 249° West 402 463 38,000  Level Denver Center
Mon 09:58:38 AM 39.2886 -105.8847 250° West 400 460 38,000  Level Denver Center
Mon 09:59:40 AM 39.2506 -106.0189 250° West 401 461 38,000  Level Denver Center
Mon 10:00:42 AM 39.2119 -106.1519 250° West 397 457 38,000  Level Denver Center
Mon 10:01:43 AM 39.1708 -106.2978 250° West 398 458 38,000  Level Denver Center
Mon 10:02:44 AM 39.1325 -106.4258 249° West 400 460 38,000  Level Denver Center
Mon 10:03:46 AM 39.0883 -106.5767 249° West 401 461 38,000  Level Denver Center
Mon 10:04:47 AM 39.0508 -106.7047 249° West 401 461 38,000  Level Denver Center
Mon 10:05:49 AM 39.0139 -106.8344 250° West 403 464 38,000  Level Denver Center
Mon 10:06:50 AM 38.9683 -106.9850 249° West 404 465 38,000  Level Denver Center
Mon 10:07:52 AM 38.9300 -107.1136 249° West 403 464 38,000  Level Denver Center
Mon 10:08:53 AM 38.8850 -107.2650 249° West 406 467 38,000  Level Denver Center
Mon 10:09:55 AM 38.8461 -107.3925 249° West 402 463 38,000  Level Denver Center
Mon 10:10:56 AM 38.8081 -107.5206 249° West 400 460 38,000  Level Denver Center
Mon 10:11:58 AM 38.7628 -107.6700 249° West 400 460 38,000  Level Denver Center
Mon 10:13:00 AM 38.7228 -107.7983 248° West 402 463 38,000  Level Denver Center
Mon 10:14:01 AM 38.6783 -107.9472 249° West 400 460 38,000  Level Denver Center
Mon 10:15:03 AM 38.6386 -108.0736 248° West 399 459 38,000  Level Denver Center
Mon 10:16:05 AM 38.5997 -108.1997 249° West 397 457 38,000  Level Denver Center
Mon 10:17:06 AM 38.5542 -108.3472 248° West 398 458 38,000  Level Denver Center
Mon 10:18:08 AM 38.5144 -108.4719 248° West 395 455 38,000  Level Denver Center
Mon 10:19:10 AM 38.4692 -108.6189 249° West 397 457 38,000  Level Denver Center
Mon 10:20:12 AM 38.4292 -108.7461 248° West 403 464 38,000  Level Denver Center
Mon 10:21:25 AM 38.3900 -108.8719 248° West 399 459 38,000  Level Denver Center
Mon 10:22:27 AM 38.3358 -109.0375 247° West 399 459 38,000  Level Denver Center
Mon 10:23:29 AM 38.2892 -109.1853 248° West 402 463 38,000  Level Denver Center
Mon 10:24:31 AM 38.2486 -109.3064 247° West 393 452 38,000  Level Denver Center
Mon 10:25:33 AM 38.2089 -109.4336 248° West 400 460 38,000  Level Denver Center
Mon 10:26:35 AM 38.1617 -109.5775 247° West 396 456 38,000  Level Denver Center
Mon 10:27:37 AM 38.1208 -109.7022 247° West 399 459 38,000  Level Denver Center
Mon 10:28:39 AM 38.0733 -109.8461 247° West 396 456 38,000  Level Denver Center
Mon 10:29:41 AM 38.0333 -109.9694 248° West 394 453 38,000  Level Denver Center
Mon 10:30:43 AM 37.9892 -110.1008 247° West 392 451 38,000 -194 Level Denver Center
Mon 10:31:45 AM 37.9411 -110.2447 247° West 395 455 37,600 -629 Descending Denver Center
Mon 10:32:47 AM 37.9003 -110.3683 247° West 398 458 36,700 -968 Descending Denver Center
Mon 10:33:49 AM 37.8506 -110.5161 247° West 408 470 35,600 -919 Descending Denver Center
Mon 10:34:51 AM 37.8108 -110.6356 247° West 413 475 34,800 -919 Descending Denver Center
Mon 10:35:53 AM 37.7558 -110.7967 247° West 415 478 33,700 -1,016 Descending Denver Center
Mon 10:36:55 AM 37.7100 -110.9319 247° West 419 482 32,700 -823 Descending Denver Center
Mon 10:37:57 AM 37.6631 -111.0686 247° West 424 488 32,000 -339 Descending Denver Center
Mon 10:38:59 AM 37.6161 -111.2056 247° West 425 489 32,000  Level Denver Center
Mon 10:40:01 AM 37.5689 -111.3419 246° West 425 489 32,000  Level Denver Center
Mon 10:41:03 AM 37.5217 -111.4783 246° West 425 489 32,000  Level Denver Center
Mon 10:42:05 AM 37.4731 -111.6147 246° West 427 491 32,000  Level Denver Center
Mon 10:43:07 AM 37.4161 -111.7792 246° West 427 491 32,000  Level Denver Center
Mon 10:44:09 AM 37.3694 -111.9156 247° West 425 489 32,000  Level Denver Center
Mon 10:45:11 AM 37.3225 -112.0514 247° West 423 487 32,000 -48 Level Denver Center
Mon 10:46:13 AM 37.2731 -112.1889 246° West 426 490 31,900 -532 Descending Denver Center
Mon 10:47:15 AM 37.2236 -112.3264 246° West 429 494 30,900 -955 Descending Denver Center
Mon 10:48:25 AM 37.1614 -112.4933 245° Southwest 433 498 29,800 -955 Descending Los Angeles Center
Mon 10:49:27 AM 37.1117 -112.6322 246° West 435 501 28,800 -871 Descending Los Angeles Center
Mon 10:50:29 AM 37.0614 -112.7714 246° West 436 502 28,000 -387 Descending Los Angeles Center
Mon 10:51:31 AM 37.0103 -112.9103 245° Southwest 438 504 28,000  Level Los Angeles Center
Mon 10:52:33 AM 36.9494 -113.0758 245° Southwest 435 501 28,000  Level Los Angeles Center
Mon 10:53:35 AM 36.8986 -113.2144 245° Southwest 437 503 28,000  Level Los Angeles Center
Mon 10:54:36 AM 36.8467 -113.3531 245° Southwest 438 504 28,000  Level Los Angeles Center
Mon 10:55:38 AM 36.7956 -113.4925 245° Southwest 441 507 28,000  Level Los Angeles Center
Mon 10:56:40 AM 36.7436 -113.6333 245° Southwest 444 511 28,000 -1,210 Level Los Angeles Center
Mon 10:57:42 AM 36.6922 -113.7739 246° West 447 514 25,500 -2,732 Descending Los Angeles Center
Mon 10:58:43 AM 36.6397 -113.9106 244° Southwest 440 506 22,400 -2,927 Descending Los Angeles Center
Mon 10:59:45 AM 36.5919 -114.0419 246° West 422 486 19,500 -3,097 Descending Los Angeles Center
Mon 11:00:47 AM 36.5286 -114.1881 242° Southwest 402 463 16,000 -3,106 Descending Los Angeles Center
Mon 11:01:10 AM 36.5108 -114.2283 241° Southwest 405 466 15,100 -2,600 Descending Los Angeles Center
Mon 11:01:47 AM 36.4769 -114.2992 239° Southwest 393 452 13,400 -1,608 Descending Los Angeles Center
Mon 11:02:47 AM 36.4236 -114.4192 241° Southwest 371 427 12,500 -709 Descending Los Angeles Center
Mon 11:03:54 AM 36.3556 -114.4931 221° Southwest 316 364 11,900 -992 Descending Los Angeles Center
Mon 11:04:54 AM 36.2844 -114.5458 211° Southwest 303 349 10,400 -1,377 Descending Los Angeles Center
Mon 11:05:56 AM 36.2181 -114.6039 215° Southwest 291 335 9,100 -1,116 Descending Los Angeles Center
Mon 11:07:03 AM 36.1458 -114.6683 216° Southwest 279 321 8,000 -472 Descending Los Angeles Center
Mon 11:08:03 AM 36.0819 -114.7217 214° Southwest 274 315 8,100 -353 Climbing Los Angeles Center
Mon 11:09:02 AM 36.0733 -114.7956 262° West 277 319 7,300 -893 Descending Los Angeles Center
Mon 11:10:04 AM 36.0744 -114.8836 271° West 264 304 6,300 -1,403 Descending Los Angeles Center
Mon 11:11:06 AM 36.0733 -114.9833 269° West 253 291 4,400 -1,403 Descending Los Angeles Center
Mon 11:12:08 AM 36.0739 -115.0464 271° West 215 247 3,400 -919 Descending Los Angeles Center
Mon 11:13:10 AM 36.0736 -115.0981 270° West 174 200 2,500 -629 Descending Los Angeles Center
Mon 11:14:12 AM 36.0736 -115.1478 270° West 158 182 2,100 -387 Descending Los Angeles Center
Mon 11:16:00 AM 36.0667 -115.1500 219° Southwest  Level FlightAware Approximate

Login

Don't have an account? Register now (free) for customized features, flight alerts, and more!